Time;durP1;ratioP1;P1;durP2;ratioP2;P2;SDS_P1;SDS_P2;PMS_P1;PMS_P2;Temp;Humidity;BMP_temperature;BMP_pressure;BME280_temperature;BME280_humidity;BME280_pressure;Samples;Min_cycle;Max_cycle;Signal;HPM_P1;HPM_P2
2021/03/03 00:00:17;;;;;;;24.93;12.93;;;10.80;99.90;;;;;;5050852;28;20231;-75
2021/03/03 00:02:44;;;;;;;22.17;12.47;;;10.90;99.90;;;;;;5032146;28;20239;-75
2021/03/03 00:05:11;;;;;;;20.33;12.37;;;10.80;99.90;;;;;;5036876;28;20242;-74
2021/03/03 00:07:38;;;;;;;23.80;13.23;;;10.80;99.90;;;;;;5051832;28;20521;-74
2021/03/03 00:10:05;;;;;;;23.77;12.80;;;10.80;99.90;;;;;;5051939;28;20237;-74
2021/03/03 00:12:32;;;;;;;22.13;13.30;;;10.80;99.90;;;;;;5051064;28;20311;-74
2021/03/03 00:14:59;;;;;;;21.43;12.83;;;10.80;99.90;;;;;;5051341;28;20242;-74
2021/03/03 00:17:25;;;;;;;21.43;12.60;;;10.80;99.90;;;;;;5042156;28;20259;-74
2021/03/03 00:19:52;;;;;;;22.13;13.20;;;10.80;99.90;;;;;;5033258;28;20267;-74
2021/03/03 00:22:19;;;;;;;23.70;12.87;;;10.80;99.90;;;;;;5051060;28;20653;-74
2021/03/03 00:24:45;;;;;;;20.67;12.50;;;10.80;99.90;;;;;;5051181;28;20207;-74
2021/03/03 00:27:12;;;;;;;23.57;12.03;;;10.80;99.90;;;;;;5050703;28;20725;-75
2021/03/03 00:29:38;;;;;;;19.83;12.47;;;10.70;99.90;;;;;;5051410;28;20241;-74
2021/03/03 00:32:06;;;;;;;20.03;12.97;;;10.80;99.90;;;;;;5035968;28;20315;-74
2021/03/03 00:34:32;;;;;;;18.17;12.60;;;10.80;99.90;;;;;;5034389;28;20206;-74
2021/03/03 00:36:59;;;;;;;26.10;12.70;;;10.80;99.90;;;;;;5050758;28;20643;-74
2021/03/03 00:39:26;;;;;;;20.90;12.43;;;10.70;99.90;;;;;;5036208;28;20243;-75
2021/03/03 00:41:53;;;;;;;21.53;12.97;;;10.80;99.90;;;;;;5024414;28;20226;-74
2021/03/03 00:44:19;;;;;;;24.47;12.70;;;10.70;99.90;;;;;;5042271;28;20297;-74
2021/03/03 00:46:46;;;;;;;22.80;12.13;;;10.70;99.90;;;;;;5050987;28;20703;-74
2021/03/03 00:49:13;;;;;;;20.13;12.10;;;10.70;99.90;;;;;;5050821;28;20231;-74
2021/03/03 00:51:39;;;;;;;26.40;12.73;;;10.80;99.90;;;;;;5050026;28;20714;-74
2021/03/03 00:54:06;;;;;;;23.90;12.57;;;10.90;99.90;;;;;;5051288;28;20240;-74
2021/03/03 00:56:33;;;;;;;22.97;12.73;;;10.90;99.90;;;;;;5047569;28;20262;-74
2021/03/03 00:58:59;;;;;;;19.73;11.57;;;10.80;99.90;;;;;;5033173;28;20562;-74
2021/03/03 01:01:26;;;;;;;22.27;11.90;;;10.80;99.90;;;;;;5049785;28;20690;-74
2021/03/03 01:03:52;;;;;;;20.43;11.90;;;10.80;99.90;;;;;;5050233;28;20304;-74
2021/03/03 01:06:20;;;;;;;20.47;11.93;;;10.70;99.90;;;;;;5046256;28;20235;-74
2021/03/03 01:08:46;;;;;;;18.20;11.73;;;10.70;99.90;;;;;;5030394;28;20247;-74
2021/03/03 01:11:13;;;;;;;21.10;11.93;;;10.70;99.90;;;;;;5049395;28;20238;-74
2021/03/03 01:13:39;;;;;;;22.10;11.80;;;10.60;99.90;;;;;;5053997;28;20231;-74
2021/03/03 01:16:06;;;;;;;21.73;11.57;;;10.60;99.90;;;;;;5053860;28;20207;-74
2021/03/03 01:18:33;;;;;;;21.97;12.27;;;10.60;99.90;;;;;;5047925;28;20274;-74
2021/03/03 01:20:59;;;;;;;22.93;11.97;;;10.60;99.90;;;;;;5051109;28;20243;-75
2021/03/03 01:23:27;;;;;;;19.60;12.10;;;10.50;99.90;;;;;;5044214;28;20254;-74
2021/03/03 01:25:53;;;;;;;19.80;11.57;;;10.50;99.90;;;;;;5054070;28;20269;-74
2021/03/03 01:28:20;;;;;;;24.87;12.13;;;10.50;99.90;;;;;;5054797;28;20213;-74
2021/03/03 01:30:46;;;;;;;16.60;11.80;;;10.50;99.90;;;;;;5054128;28;20232;-74
2021/03/03 01:33:22;;;;;;;17.40;11.60;;;10.50;99.90;;;;;;5053723;28;20263;-74
2021/03/03 01:35:49;;;;;;;20.33;11.50;;;10.50;99.90;;;;;;5034097;28;20290;-74
2021/03/03 01:38:15;;;;;;;16.80;11.73;;;10.50;99.90;;;;;;5037678;28;20228;-74
2021/03/03 01:40:43;;;;;;;20.87;12.63;;;10.50;99.90;;;;;;5053632;28;20239;-75
2021/03/03 01:43:09;;;;;;;23.87;12.63;;;10.40;99.90;;;;;;5053743;28;20230;-74
2021/03/03 01:45:36;;;;;;;22.60;12.07;;;10.40;99.90;;;;;;5053755;28;20286;-74
2021/03/03 01:48:02;;;;;;;21.30;11.87;;;10.50;99.90;;;;;;5052977;28;20635;-74
2021/03/03 01:50:29;;;;;;;18.10;11.90;;;10.40;99.90;;;;;;5053791;28;20231;-74
2021/03/03 01:52:56;;;;;;;21.37;12.17;;;10.40;99.90;;;;;;5053369;28;20709;-74
2021/03/03 01:55:22;;;;;;;21.03;11.43;;;10.40;99.90;;;;;;5036450;28;20231;-74
2021/03/03 01:57:50;;;;;;;20.80;12.40;;;10.30;99.90;;;;;;5052985;28;20223;-74
2021/03/03 02:00:18;;;;;;;29.00;12.30;;;10.40;99.90;;;;;;5054185;28;20241;-74
2021/03/03 02:02:44;;;;;;;22.23;12.57;;;10.30;99.90;;;;;;5049608;28;20240;-75
2021/03/03 02:05:13;;;;;;;20.50;12.43;;;10.20;99.90;;;;;;5049858;28;20617;-73
2021/03/03 02:07:45;;;;;;;19.23;12.63;;;10.10;99.90;;;;;;5052627;28;20195;-74
2021/03/03 02:10:18;;;;;;;26.30;13.10;;;10.00;99.90;;;;;;5043337;28;20212;-74
2021/03/03 02:12:51;;;;;;;19.70;12.40;;;9.90;99.90;;;;;;5049740;28;20261;-74
2021/03/03 02:15:19;;;;;;;21.93;12.87;;;9.90;99.90;;;;;;5053546;28;20248;-74
2021/03/03 02:17:47;;;;;;;18.43;11.90;;;9.90;99.90;;;;;;5051808;28;20247;-74
2021/03/03 02:20:15;;;;;;;22.67;12.80;;;9.90;99.90;;;;;;5053052;28;20234;-74
2021/03/03 02:22:57;;;;;;;22.77;12.47;;;9.80;99.90;;;;;;5052597;28;20234;-74
2021/03/03 02:25:27;;;;;;;19.17;12.77;;;9.80;99.90;;;;;;5052762;28;20303;-74
2021/03/03 02:27:56;;;;;;;20.57;12.03;;;9.80;99.90;;;;;;5052463;28;20744;-74
2021/03/03 02:30:24;;;;;;;20.97;13.10;;;9.70;99.90;;;;;;5052795;28;20241;-74
2021/03/03 02:32:52;;;;;;;22.40;12.73;;;9.50;99.90;;;;;;5044902;28;20273;-74
2021/03/03 02:35:19;;;;;;;22.70;12.53;;;9.40;99.90;;;;;;5053027;28;20205;-74
2021/03/03 02:37:46;;;;;;;21.00;13.20;;;9.40;99.90;;;;;;5053190;28;20814;-74
2021/03/03 02:40:14;;;;;;;21.27;12.70;;;9.40;99.90;;;;;;5042443;28;20232;-74
2021/03/03 02:42:43;;;;;;;21.77;12.10;;;9.40;99.90;;;;;;5033630;28;20236;-74
2021/03/03 02:45:11;;;;;;;18.87;12.13;;;9.40;99.90;;;;;;5040509;28;20702;-74
2021/03/03 02:47:39;;;;;;;23.37;12.20;;;9.50;99.90;;;;;;5038031;28;20633;-74
2021/03/03 02:50:07;;;;;;;20.63;12.93;;;9.50;99.90;;;;;;5048155;28;20289;-74
2021/03/03 02:52:47;;;;;;;22.37;13.03;;;9.40;99.90;;;;;;5042178;28;20327;-74
2021/03/03 02:55:15;;;;;;;20.47;12.53;;;9.40;99.90;;;;;;5052922;28;20252;-74
2021/03/03 02:57:43;;;;;;;20.00;12.73;;;9.30;99.90;;;;;;5053085;28;20296;-74
2021/03/03 03:00:13;;;;;;;21.50;12.77;;;9.10;99.90;;;;;;5051819;28;20663;-74
2021/03/03 03:02:41;;;;;;;20.57;12.57;;;8.90;99.90;;;;;;5052702;28;20230;-74
2021/03/03 03:05:10;;;;;;;22.13;12.80;;;8.70;99.90;;;;;;5048765;28;20204;-74
2021/03/03 03:07:40;;;;;;;24.73;13.23;;;8.60;99.90;;;;;;5052593;28;20245;-74
2021/03/03 03:10:10;;;;;;;19.87;12.47;;;8.60;99.90;;;;;;5052232;28;20286;-74
2021/03/03 03:12:38;;;;;;;24.40;13.03;;;8.50;99.90;;;;;;5052158;28;20228;-74
2021/03/03 03:15:09;;;;;;;20.73;12.53;;;8.50;99.90;;;;;;5052120;28;20210;-75
2021/03/03 03:17:37;;;;;;;20.40;12.63;;;8.40;99.90;;;;;;5033381;28;20731;-74
2021/03/03 03:20:06;;;;;;;23.43;13.53;;;8.30;99.90;;;;;;5052069;28;20712;-75
2021/03/03 03:22:34;;;;;;;23.23;13.93;;;8.30;99.90;;;;;;5051896;28;20200;-74
2021/03/03 03:25:03;;;;;;;21.67;12.97;;;8.30;99.90;;;;;;5052093;28;20239;-74
2021/03/03 03:27:31;;;;;;;22.43;12.90;;;8.30;99.90;;;;;;5051732;28;20708;-74
2021/03/03 03:29:59;;;;;;;21.87;13.90;;;8.30;99.90;;;;;;5052323;28;20230;-74
2021/03/03 03:32:27;;;;;;;25.80;14.23;;;8.20;99.90;;;;;;5040110;28;20320;-74
2021/03/03 03:34:55;;;;;;;21.63;13.73;;;8.20;99.90;;;;;;5032273;28;20245;-74
2021/03/03 03:37:23;;;;;;;20.30;13.83;;;8.20;99.90;;;;;;5040579;28;20690;-72
2021/03/03 03:39:49;;;;;;;25.27;13.80;;;8.20;99.90;;;;;;5052417;28;20230;-75
2021/03/03 03:42:17;;;;;;;19.90;13.73;;;8.20;99.90;;;;;;5049453;28;20236;-75
2021/03/03 03:44:45;;;;;;;27.43;13.87;;;8.20;99.90;;;;;;5051957;28;20285;-74
2021/03/03 03:47:16;;;;;;;23.57;14.33;;;8.20;99.90;;;;;;5052236;28;20292;-75
2021/03/03 03:49:45;;;;;;;25.27;13.90;;;8.30;99.90;;;;;;5051504;28;20290;-75
2021/03/03 03:52:15;;;;;;;28.03;13.33;;;8.30;99.90;;;;;;5051985;28;20795;-72
2021/03/03 03:54:48;;;;;;;27.27;14.47;;;8.30;99.90;;;;;;5034459;28;20232;-75
2021/03/03 03:57:15;;;;;;;23.03;13.33;;;8.40;99.90;;;;;;5051841;28;20292;-74
2021/03/03 03:59:41;;;;;;;22.63;13.20;;;8.40;99.90;;;;;;5050914;28;20202;-74
2021/03/03 04:02:08;;;;;;;19.73;14.03;;;8.40;99.90;;;;;;5051459;28;20619;-75
2021/03/03 04:04:35;;;;;;;22.07;13.13;;;8.50;99.90;;;;;;5050569;28;20642;-75
2021/03/03 04:07:03;;;;;;;22.80;13.53;;;8.50;99.90;;;;;;5045817;28;20241;-74
2021/03/03 04:09:29;;;;;;;19.20;13.37;;;8.70;99.90;;;;;;5031072;28;20288;-75
2021/03/03 04:11:56;;;;;;;22.37;13.73;;;8.60;99.90;;;;;;5031403;28;20583;-74
2021/03/03 04:14:23;;;;;;;23.07;13.37;;;8.50;99.90;;;;;;5043726;28;20221;-74
2021/03/03 04:16:50;;;;;;;24.60;13.63;;;8.40;99.90;;;;;;5047392;28;20245;-74
2021/03/03 04:19:17;;;;;;;20.87;13.27;;;8.40;99.90;;;;;;5031292;28;20264;-74
2021/03/03 04:21:44;;;;;;;23.40;13.10;;;8.40;99.90;;;;;;5031444;28;20238;-75
2021/03/03 04:24:11;;;;;;;21.97;13.00;;;8.40;99.90;;;;;;5050286;28;20245;-75
2021/03/03 04:26:38;;;;;;;23.10;12.57;;;8.80;99.90;;;;;;5050681;28;20262;-75
2021/03/03 04:29:04;;;;;;;20.27;12.67;;;8.80;99.90;;;;;;5051243;28;20241;-74
2021/03/03 04:31:31;;;;;;;24.97;13.30;;;8.90;99.90;;;;;;5050469;28;20240;-74
2021/03/03 04:33:57;;;;;;;23.33;12.50;;;9.00;99.90;;;;;;5034204;28;20703;-74
2021/03/03 04:36:24;;;;;;;18.77;12.17;;;9.10;99.90;;;;;;5051157;28;20723;-75
2021/03/03 04:38:50;;;;;;;20.47;12.37;;;9.10;99.90;;;;;;5051488;28;20241;-75
2021/03/03 04:41:17;;;;;;;21.40;12.73;;;9.00;99.90;;;;;;5051212;28;20239;-75
2021/03/03 04:43:44;;;;;;;20.63;11.90;;;9.10;99.90;;;;;;5051278;28;20229;-75
2021/03/03 04:46:10;;;;;;;20.00;12.70;;;9.10;99.90;;;;;;5051679;28;20249;-74
2021/03/03 04:48:37;;;;;;;20.20;12.50;;;9.10;99.90;;;;;;5043943;28;20290;-75
2021/03/03 04:51:04;;;;;;;19.00;12.53;;;9.00;99.90;;;;;;5055551;28;20226;-74
2021/03/03 04:53:30;;;;;;;19.20;12.33;;;9.00;99.90;;;;;;5055609;28;20308;-74
2021/03/03 04:55:57;;;;;;;20.97;12.23;;;9.10;99.90;;;;;;5055077;28;20253;-74
2021/03/03 04:58:24;;;;;;;20.40;12.70;;;9.00;99.90;;;;;;5055302;28;20209;-74
2021/03/03 05:00:50;;;;;;;20.57;12.50;;;9.10;99.90;;;;;;5054900;28;20241;-74
2021/03/03 05:03:17;;;;;;;22.17;12.37;;;9.10;99.90;;;;;;5055045;28;20287;-74
2021/03/03 05:05:43;;;;;;;21.87;12.83;;;9.20;99.90;;;;;;5055068;28;20675;-74
2021/03/03 05:08:10;;;;;;;22.03;12.50;;;9.10;99.90;;;;;;5036498;28;20237;-74
2021/03/03 05:10:36;;;;;;;18.27;12.10;;;9.10;99.90;;;;;;5035123;28;20302;-74
2021/03/03 05:13:03;;;;;;;23.27;12.93;;;9.10;99.90;;;;;;5046513;28;20301;-74
2021/03/03 05:15:30;;;;;;;18.40;12.07;;;9.10;99.90;;;;;;5053978;28;20623;-74
2021/03/03 05:17:56;;;;;;;23.87;12.73;;;9.20;99.90;;;;;;5041659;28;20898;-74
2021/03/03 05:20:23;;;;;;;20.90;12.50;;;9.20;99.90;;;;;;5040535;28;20240;-74
2021/03/03 05:22:49;;;;;;;19.40;12.73;;;9.20;99.90;;;;;;5054697;28;20189;-74
2021/03/03 05:25:16;;;;;;;18.30;11.97;;;9.20;99.90;;;;;;5053566;28;20244;-74
2021/03/03 05:27:42;;;;;;;20.10;13.00;;;9.10;99.90;;;;;;5053989;28;20253;-73
2021/03/03 05:30:10;;;;;;;20.70;12.67;;;9.20;99.90;;;;;;5036533;28;20681;-73
2021/03/03 05:32:37;;;;;;;21.57;12.93;;;9.20;99.90;;;;;;5053090;28;20259;-73
2021/03/03 05:35:05;;;;;;;22.33;13.00;;;9.20;99.90;;;;;;5034330;28;20678;-72
2021/03/03 05:37:31;;;;;;;22.97;13.30;;;9.20;99.90;;;;;;5039939;28;20229;-75
2021/03/03 05:39:58;;;;;;;24.50;13.37;;;9.20;99.90;;;;;;5040063;28;20302;-74
2021/03/03 05:42:25;;;;;;;19.90;12.57;;;9.20;99.90;;;;;;5034330;28;20231;-74
2021/03/03 05:44:52;;;;;;;18.87;12.27;;;9.10;99.90;;;;;;5039984;28;20209;-75
2021/03/03 05:47:19;;;;;;;19.33;12.37;;;9.00;99.90;;;;;;5054354;28;20344;-74
2021/03/03 05:49:47;;;;;;;21.93;13.47;;;8.90;99.90;;;;;;5053492;28;20234;-74
2021/03/03 05:52:16;;;;;;;21.23;13.43;;;8.80;99.90;;;;;;5052775;28;20637;-74
2021/03/03 05:54:45;;;;;;;21.50;13.63;;;8.80;99.90;;;;;;5053812;28;20238;-74
2021/03/03 05:57:12;;;;;;;24.10;13.57;;;8.80;99.90;;;;;;5033508;28;20654;-74
2021/03/03 05:59:39;;;;;;;19.20;13.50;;;8.80;99.90;;;;;;5052828;28;20286;-74
2021/03/03 06:02:07;;;;;;;25.43;13.97;;;8.70;99.90;;;;;;5046460;28;20202;-74
2021/03/03 06:04:34;;;;;;;23.67;14.07;;;8.70;99.90;;;;;;5034154;28;20242;-74
2021/03/03 06:07:02;;;;;;;20.17;13.87;;;8.70;99.90;;;;;;5034305;28;20295;-74
2021/03/03 06:09:28;;;;;;;21.60;13.60;;;8.70;99.90;;;;;;5035221;28;20242;-74
2021/03/03 06:11:56;;;;;;;23.20;14.20;;;8.70;99.90;;;;;;5033833;28;20258;-74
2021/03/03 06:14:23;;;;;;;23.13;14.23;;;8.70;99.90;;;;;;5033769;28;20244;-74
2021/03/03 06:16:49;;;;;;;27.10;14.80;;;8.70;99.90;;;;;;5036679;28;20303;-74
2021/03/03 06:19:17;;;;;;;23.33;14.80;;;8.70;99.90;;;;;;5053276;28;20272;-74
2021/03/03 06:21:43;;;;;;;25.40;14.33;;;8.70;99.90;;;;;;5053740;28;20322;-74
2021/03/03 06:24:12;;;;;;;22.20;14.40;;;8.70;99.90;;;;;;5053418;28;20234;-74
2021/03/03 06:26:54;;;;;;;27.17;15.20;;;8.70;99.90;;;;;;5053983;28;20246;-74
2021/03/03 06:29:20;;;;;;;23.80;15.03;;;8.70;99.90;;;;;;5050849;28;20247;-74
2021/03/03 06:31:48;;;;;;;25.00;14.87;;;8.70;99.90;;;;;;5053618;28;20292;-74
2021/03/03 06:34:16;;;;;;;23.33;14.80;;;8.70;99.90;;;;;;5053167;28;20239;-74
2021/03/03 06:36:44;;;;;;;27.03;15.90;;;8.70;99.90;;;;;;5039386;28;20241;-74
2021/03/03 06:39:23;;;;;;;24.00;15.20;;;8.70;99.90;;;;;;5045523;28;20246;-74
2021/03/03 06:41:51;;;;;;;24.27;16.23;;;8.70;99.90;;;;;;5053247;28;20288;-74
2021/03/03 06:44:17;;;;;;;26.30;15.80;;;8.70;99.90;;;;;;5052787;28;20203;-75
2021/03/03 06:47:01;;;;;;;26.83;16.33;;;8.70;99.90;;;;;;5053180;28;20289;-74
2021/03/03 06:49:27;;;;;;;26.03;17.00;;;8.70;99.90;;;;;;5052178;28;20196;-74
2021/03/03 06:51:55;;;;;;;24.00;16.77;;;8.70;99.90;;;;;;5052451;28;20259;-74
2021/03/03 06:54:24;;;;;;;24.83;16.40;;;8.60;99.90;;;;;;5032812;28;20871;-74
2021/03/03 06:56:52;;;;;;;28.40;16.77;;;8.50;99.90;;;;;;5033136;28;20227;-75
2021/03/03 06:59:21;;;;;;;26.63;16.57;;;8.50;99.90;;;;;;5035953;28;20649;-74
2021/03/03 07:01:50;;;;;;;24.77;17.13;;;8.30;99.90;;;;;;5051401;28;20238;-74
2021/03/03 07:04:22;;;;;;;25.53;16.67;;;8.20;99.90;;;;;;5033069;28;20234;-74
2021/03/03 07:06:49;;;;;;;28.80;16.97;;;8.20;99.90;;;;;;5046363;28;20242;-74
2021/03/03 07:09:16;;;;;;;24.87;17.07;;;8.20;99.90;;;;;;5051923;28;20249;-74
2021/03/03 07:11:44;;;;;;;26.60;16.43;;;8.20;99.90;;;;;;5051743;28;20244;-74
2021/03/03 07:14:18;;;;;;;26.47;16.60;;;8.20;99.90;;;;;;5032743;28;20261;-74
2021/03/03 07:17:02;;;;;;;25.80;17.13;;;8.30;99.90;;;;;;5039321;28;20258;-74
2021/03/03 07:19:28;;;;;;;30.47;17.17;;;8.30;99.90;;;;;;5041617;28;20227;-74
2021/03/03 07:21:56;;;;;;;27.90;17.40;;;8.30;99.90;;;;;;5052434;28;20227;-74
2021/03/03 07:24:24;;;;;;;24.47;17.07;;;8.20;99.90;;;;;;5050619;28;20242;-74
2021/03/03 07:26:51;;;;;;;24.07;16.67;;;8.30;99.90;;;;;;5051828;28;20205;-74
2021/03/03 07:29:18;;;;;;;26.00;17.53;;;8.30;99.90;;;;;;5051574;28;20244;-74
2021/03/03 07:31:45;;;;;;;29.77;17.87;;;8.30;99.90;;;;;;5051641;28;20616;-74
2021/03/03 07:34:12;;;;;;;25.50;17.67;;;8.30;99.90;;;;;;5044030;28;20212;-74
2021/03/03 07:36:40;;;;;;;25.20;17.47;;;8.30;99.90;;;;;;5032181;28;20301;-74
2021/03/03 07:39:08;;;;;;;24.97;17.17;;;8.40;99.90;;;;;;5042887;28;20782;-74
2021/03/03 07:41:44;;;;;;;30.07;18.87;;;8.40;99.90;;;;;;5040877;28;20242;-74
2021/03/03 07:44:16;;;;;;;25.20;18.00;;;8.40;99.90;;;;;;5050317;28;20225;-74
2021/03/03 07:46:43;;;;;;;28.20;17.93;;;8.50;99.90;;;;;;5040989;28;20285;-74
2021/03/03 07:49:12;;;;;;;27.20;19.47;;;8.50;99.90;;;;;;5052253;28;20241;-74
2021/03/03 07:51:41;;;;;;;28.43;19.37;;;8.50;99.90;;;;;;5033627;28;20646;-74
2021/03/03 07:54:10;;;;;;;31.50;19.63;;;8.50;99.90;;;;;;5052319;28;20227;-74
2021/03/03 07:56:38;;;;;;;33.80;21.50;;;8.50;99.90;;;;;;5051255;28;20253;-74
2021/03/03 07:59:07;;;;;;;35.50;21.47;;;8.60;99.90;;;;;;5044823;28;20292;-74
2021/03/03 08:01:35;;;;;;;32.67;20.10;;;8.60;99.90;;;;;;5043004;28;20289;-73
2021/03/03 08:04:01;;;;;;;30.20;20.77;;;8.60;99.90;;;;;;5045800;28;20234;-73
2021/03/03 08:06:36;;;;;;;29.40;20.23;;;8.70;99.90;;;;;;5040937;28;20332;-74
2021/03/03 08:09:10;;;;;;;30.60;19.93;;;8.70;99.90;;;;;;5043837;28;20209;-74
2021/03/03 08:11:38;;;;;;;27.20;18.73;;;8.60;99.90;;;;;;5046623;28;20234;-73
2021/03/03 08:14:28;;;;;;;29.90;19.83;;;8.60;99.90;;;;;;5049133;28;20273;-74
2021/03/03 08:16:58;;;;;;;28.87;19.03;;;8.70;99.90;;;;;;5045911;28;20254;-73
2021/03/03 08:20:02;;;;;;;26.70;18.30;;;8.80;99.90;;;;;;5048267;28;20227;-74
2021/03/03 08:22:48;;;;;;;29.17;19.77;;;8.90;99.90;;;;;;5042827;28;20278;-74
2021/03/03 08:25:45;;;;;;;29.80;20.03;;;9.00;99.90;;;;;;5047176;28;20707;-75
2021/03/03 08:28:25;;;;;;;25.80;18.37;;;9.00;99.90;;;;;;5037966;28;20244;-75
2021/03/03 08:31:30;;;;;;;32.17;19.30;;;9.00;99.90;;;;;;5050449;28;20206;-75
2021/03/03 08:34:04;;;;;;;28.90;19.17;;;9.00;99.90;;;;;;5046023;28;20276;-74
2021/03/03 08:37:01;;;;;;;34.60;18.83;;;9.20;99.90;;;;;;5037291;28;20613;-75
2021/03/03 08:39:34;;;;;;;27.17;19.40;;;9.40;99.90;;;;;;5030729;28;20223;-75
2021/03/03 08:42:03;;;;;;;27.53;18.70;;;9.40;99.90;;;;;;5031406;28;20282;-74
2021/03/03 08:44:30;;;;;;;26.73;18.67;;;9.50;99.90;;;;;;5031701;28;20267;-75
2021/03/03 08:46:57;;;;;;;25.77;18.67;;;9.50;99.90;;;;;;5031016;28;20238;-74
2021/03/03 08:49:27;;;;;;;29.10;19.43;;;9.70;99.90;;;;;;5032323;28;20207;-74
2021/03/03 08:52:12;;;;;;;28.67;19.77;;;9.80;99.90;;;;;;5050140;28;20657;-75
2021/03/03 08:54:43;;;;;;;26.53;18.67;;;10.10;99.90;;;;;;5049505;28;20211;-75
2021/03/03 08:57:37;;;;;;;34.73;18.87;;;10.30;99.90;;;;;;5050306;28;20260;-75
2021/03/03 09:00:07;;;;;;;26.40;17.87;;;10.40;99.90;;;;;;5050200;28;20249;-75
2021/03/03 09:02:39;;;;;;;27.80;18.07;;;10.40;99.90;;;;;;5050220;28;20200;-75
2021/03/03 09:05:20;;;;;;;27.93;16.90;;;10.60;99.90;;;;;;5050959;28;20242;-75
2021/03/03 09:07:47;;;;;;;27.63;18.00;;;10.80;99.90;;;;;;5050415;28;20283;-75
2021/03/03 09:10:17;;;;;;;29.83;18.00;;;11.30;99.90;;;;;;5043742;28;20246;-75
2021/03/03 09:12:46;;;;;;;30.03;16.90;;;11.70;99.90;;;;;;5033360;28;20215;-75
2021/03/03 09:15:14;;;;;;;29.40;17.20;;;12.40;99.90;;;;;;5051362;28;20269;-75
2021/03/03 09:17:43;;;;;;;24.43;15.13;;;13.40;99.90;;;;;;5027118;28;20294;-75
2021/03/03 09:20:13;;;;;;;25.90;15.73;;;13.50;99.90;;;;;;5050922;28;20208;-75
2021/03/03 09:22:41;;;;;;;22.37;14.70;;;13.20;99.90;;;;;;5050949;28;20228;-75
2021/03/03 09:25:12;;;;;;;28.33;15.43;;;13.70;99.90;;;;;;5051143;28;20235;-74
2021/03/03 09:27:40;;;;;;;21.80;14.67;;;14.10;99.90;;;;;;5051030;28;20200;-75
2021/03/03 09:30:09;;;;;;;20.07;12.77;;;15.10;99.90;;;;;;5051070;28;20204;-75
2021/03/03 09:32:35;;;;;;;19.67;12.63;;;16.60;99.90;;;;;;5051900;28;20729;-75
2021/03/03 09:35:05;;;;;;;21.77;13.23;;;17.60;99.90;;;;;;5054828;28;20664;-75
2021/03/03 09:37:38;;;;;;;22.00;12.95;;;18.10;99.90;;;;;;5037215;28;20287;-75
2021/03/03 09:40:07;;;;;;;19.52;11.15;;;18.40;99.90;;;;;;5034744;28;20200;-75
2021/03/03 09:42:41;;;;;;;20.35;12.60;;;18.90;99.90;;;;;;5034672;28;20204;-75
2021/03/03 09:45:09;;;;;;;21.05;12.55;;;19.50;99.90;;;;;;5034686;28;20204;-75
2021/03/03 09:47:38;;;;;;;19.85;11.35;;;20.10;99.90;;;;;;5034190;28;20684;-75
2021/03/03 09:50:08;;;;;;;16.25;10.60;;;20.10;99.90;;;;;;5034377;28;20232;-75
2021/03/03 09:52:38;;;;;;;16.67;10.75;;;20.00;99.90;;;;;;5033927;28;20696;-75
2021/03/03 09:55:07;;;;;;;18.83;11.02;;;20.20;99.90;;;;;;5034382;28;20235;-75
2021/03/03 09:57:34;;;;;;;15.98;10.98;;;20.20;99.90;;;;;;5016931;28;20219;-75
2021/03/03 10:00:01;;;;;;;16.60;10.00;;;20.10;99.90;;;;;;5034210;28;20232;-74
2021/03/03 10:02:29;;;;;;;18.77;11.40;;;18.30;99.90;;;;;;5034438;28;20656;-74
2021/03/03 10:04:58;;;;;;;16.42;11.13;;;17.70;99.90;;;;;;5034240;28;20216;-75
2021/03/03 10:07:26;;;;;;;20.70;10.85;;;17.50;99.90;;;;;;5033997;28;20205;-75
2021/03/03 10:09:55;;;;;;;17.95;11.40;;;18.50;99.90;;;;;;5046187;28;20752;-74
2021/03/03 10:12:22;;;;;;;18.77;10.88;;;18.60;99.90;;;;;;5054001;28;20262;-75
2021/03/03 10:14:54;;;;;;;17.10;9.65;;;19.40;99.90;;;;;;5053391;28;20732;-75
2021/03/03 10:17:49;;;;;;;13.57;9.23;;;20.90;99.90;;;;;;5053088;28;20707;-75
2021/03/03 10:20:34;;;;;;;15.75;8.82;;;21.90;99.90;;;;;;5048290;28;20235;-76
2021/03/03 10:23:07;;;;;;;15.55;7.68;;;22.00;99.90;;;;;;5053701;28;20663;-75
2021/03/03 10:25:38;;;;;;;12.40;6.82;;;21.60;99.90;;;;;;5054173;28;20246;-75
2021/03/03 10:28:08;;;;;;;13.80;6.88;;;21.50;99.90;;;;;;5053757;28;20291;-75
2021/03/03 10:30:36;;;;;;;11.93;7.28;;;21.40;99.90;;;;;;5053462;28;20227;-75
2021/03/03 10:33:03;;;;;;;13.40;8.10;;;20.40;99.90;;;;;;5053419;28;20259;-74
2021/03/03 10:35:30;;;;;;;10.60;6.35;;;19.90;99.90;;;;;;5053340;28;20231;-75
2021/03/03 10:38:12;;;;;;;11.23;7.07;;;19.10;99.90;;;;;;5040950;28;20277;-75
2021/03/03 10:40:41;;;;;;;11.07;6.82;;;18.50;99.90;;;;;;5030782;28;20295;-75
2021/03/03 10:43:09;;;;;;;10.32;6.50;;;18.90;99.90;;;;;;5033035;28;20661;-75
2021/03/03 10:45:36;;;;;;;12.10;5.90;;;19.90;99.90;;;;;;5032261;28;20200;-75
2021/03/03 10:48:02;;;;;;;12.63;6.28;;;21.00;99.90;;;;;;5033461;28;20282;-75
2021/03/03 10:50:30;;;;;;;12.38;6.22;;;21.70;99.90;;;;;;5032967;28;20239;-76
2021/03/03 10:53:00;;;;;;;11.73;5.80;;;21.30;99.90;;;;;;5033045;28;20309;-75
2021/03/03 10:55:34;;;;;;;9.27;4.32;;;21.20;99.90;;;;;;5033187;28;20334;-75
2021/03/03 10:58:14;;;;;;;12.43;4.45;;;21.60;99.90;;;;;;5032913;28;20247;-75
2021/03/03 11:00:57;;;;;;;12.43;5.93;;;20.40;99.90;;;;;;5033683;28;20228;-75
2021/03/03 11:03:24;;;;;;;11.88;6.65;;;19.70;99.90;;;;;;5032704;28;20196;-75
2021/03/03 11:05:51;;;;;;;15.77;8.30;;;19.30;99.90;;;;;;5032661;28;20242;-76
2021/03/03 11:08:18;;;;;;;16.30;7.90;;;19.30;99.90;;;;;;5032894;28;20274;-75
2021/03/03 11:10:44;;;;;;;14.55;8.63;;;19.70;99.90;;;;;;5039608;28;20294;-75
2021/03/03 11:13:12;;;;;;;18.65;9.25;;;20.30;99.90;;;;;;5052587;28;20662;-75
2021/03/03 11:15:40;;;;;;;16.50;9.82;;;21.00;99.90;;;;;;5035004;28;20235;-75
2021/03/03 11:18:08;;;;;;;14.23;9.20;;;21.90;99.90;;;;;;5037818;28;20236;-75
2021/03/03 11:20:35;;;;;;;14.10;9.50;;;22.10;99.90;;;;;;5032686;28;20703;-75
2021/03/03 11:23:02;;;;;;;14.07;9.30;;;21.30;99.90;;;;;;5032541;28;20228;-75
2021/03/03 11:25:29;;;;;;;16.95;8.13;;;21.30;99.90;;;;;;5032767;28;20204;-76
2021/03/03 11:27:55;;;;;;;15.30;9.57;;;22.00;99.90;;;;;;5014712;28;20231;-75
2021/03/03 11:30:23;;;;;;;15.45;9.55;;;20.80;99.90;;;;;;5032767;28;20236;-75
2021/03/03 11:32:50;;;;;;;13.68;7.78;;;21.00;99.90;;;;;;5031911;28;20267;-75
2021/03/03 11:35:17;;;;;;;15.77;7.32;;;20.50;99.90;;;;;;5032380;28;20656;-75
2021/03/03 11:37:44;;;;;;;12.52;8.13;;;20.20;99.90;;;;;;5042182;28;20320;-76
2021/03/03 11:40:12;;;;;;;13.77;6.75;;;19.30;99.90;;;;;;5051607;28;20231;-74
2021/03/03 11:42:39;;;;;;;10.15;5.05;;;20.00;99.90;;;;;;5033541;28;20322;-75
2021/03/03 11:45:07;;;;;;;15.40;4.70;;;20.60;99.90;;;;;;5048430;28;20272;-75
2021/03/03 11:47:34;;;;;;;12.43;4.97;;;20.40;99.90;;;;;;5052205;28;20235;-74
2021/03/03 11:50:01;;;;;;;12.80;5.20;;;20.10;99.90;;;;;;5051844;28;20282;-74
2021/03/03 11:52:27;;;;;;;14.52;5.75;;;20.00;99.90;;;;;;5052085;28;20259;-75
2021/03/03 11:54:54;;;;;;;13.05;5.80;;;19.00;99.90;;;;;;5051760;28;20250;-75
2021/03/03 11:57:20;;;;;;;18.58;6.18;;;19.30;99.90;;;;;;5051582;28;20239;-75
2021/03/03 11:59:47;;;;;;;16.90;6.03;;;19.40;99.90;;;;;;5051871;28;20287;-75
2021/03/03 12:02:13;;;;;;;11.20;5.90;;;20.20;99.90;;;;;;5051040;28;20243;-74
2021/03/03 12:04:40;;;;;;;19.67;5.60;;;20.10;99.90;;;;;;5051765;28;20250;-75
2021/03/03 12:07:07;;;;;;;11.73;5.90;;;20.00;99.90;;;;;;5031908;28;20246;-75
2021/03/03 12:09:33;;;;;;;13.57;5.40;;;18.80;99.90;;;;;;5031824;28;20755;-76
2021/03/03 12:12:00;;;;;;;11.18;6.20;;;20.30;99.90;;;;;;5040462;28;20241;-76
2021/03/03 12:14:27;;;;;;;13.10;6.80;;;21.00;99.90;;;;;;5051841;28;20259;-76
2021/03/03 12:16:53;;;;;;;14.65;5.72;;;21.80;99.90;;;;;;5048448;28;20696;-75
2021/03/03 12:19:20;;;;;;;12.63;6.25;;;20.80;99.90;;;;;;5051533;28;20301;-74
2021/03/03 12:21:48;;;;;;;13.73;5.72;;;20.10;99.90;;;;;;5051640;28;20253;-76
2021/03/03 12:24:14;;;;;;;13.25;5.88;;;19.80;99.90;;;;;;5051507;28;20267;-75
2021/03/03 12:26:41;;;;;;;11.20;6.13;;;19.80;99.90;;;;;;5051868;28;20200;-76
2021/03/03 12:29:07;;;;;;;11.40;5.35;;;20.30;99.90;;;;;;5051491;28;20266;-75
2021/03/03 12:31:34;;;;;;;11.48;5.55;;;19.40;99.90;;;;;;5051391;28;20277;-75
2021/03/03 12:34:00;;;;;;;12.05;5.55;;;19.70;99.90;;;;;;5051371;28;20255;-75
2021/03/03 12:36:27;;;;;;;13.73;5.75;;;19.70;99.90;;;;;;5051801;28;20232;-74
2021/03/03 12:38:54;;;;;;;14.15;5.70;;;19.20;99.90;;;;;;5051517;28;20440;-76
2021/03/03 12:41:21;;;;;;;10.00;5.72;;;20.00;99.90;;;;;;5051552;28;20254;-76